createdAt,value
2018-12-25T00:00:32.360Z,-1.10
2018-12-25T00:03:02.860Z,-1.10
2018-12-25T00:05:33.003Z,-1.00
2018-12-25T00:08:03.636Z,-1.00
2018-12-25T00:10:33.991Z,-1.00
2018-12-25T00:13:04.357Z,-0.90
2018-12-25T00:15:34.676Z,-0.90
2018-12-25T00:18:05.096Z,-0.90
2018-12-25T00:20:35.349Z,-0.90
2018-12-25T00:23:05.630Z,-0.90
2018-12-25T00:25:35.951Z,-0.80
2018-12-25T00:28:06.536Z,-0.80
2018-12-25T00:30:36.842Z,-0.80
2018-12-25T00:33:06.981Z,-0.70
2018-12-25T00:35:37.399Z,-0.70
2018-12-25T00:38:07.600Z,-0.70
2018-12-25T00:40:37.921Z,-0.70
2018-12-25T00:43:08.223Z,-0.70
2018-12-25T00:45:38.672Z,-0.60
2018-12-25T00:48:09.072Z,-0.60
2018-12-25T00:50:39.292Z,-0.60
2018-12-25T00:53:09.491Z,-0.50
2018-12-25T00:55:39.924Z,-0.50
2018-12-25T00:58:10.144Z,-0.50
2018-12-25T01:00:40.288Z,-0.50
2018-12-25T01:03:10.501Z,-0.40
2018-12-25T01:05:41.160Z,-0.40
2018-12-25T01:08:11.377Z,-0.40
2018-12-25T01:10:41.827Z,-0.40
2018-12-25T01:13:12.406Z,-0.40
2018-12-25T01:15:42.761Z,-0.40
2018-12-25T01:18:13.056Z,-0.40
2018-12-25T01:20:43.288Z,-0.30
2018-12-25T01:23:13.937Z,-0.30
2018-12-25T01:25:44.084Z,-0.30
2018-12-25T01:28:14.365Z,-0.30
2018-12-25T01:30:44.668Z,-0.30
2018-12-25T01:33:14.870Z,-0.20
2018-12-25T01:35:45.289Z,-0.20
2018-12-25T01:38:15.541Z,-0.20
2018-12-25T01:40:45.744Z,-0.20
2018-12-25T01:43:15.969Z,-0.20
2018-12-25T01:45:46.172Z,-0.20
2018-12-25T01:48:16.403Z,-0.10
2018-12-25T01:50:46.883Z,-0.10
2018-12-25T01:53:17.160Z,-0.10
2018-12-25T01:55:47.368Z,-0.10
2018-12-25T01:58:17.512Z,-0.10
2018-12-25T02:00:47.889Z,0.00
2018-12-25T02:03:18.677Z,0.00
2018-12-25T02:05:48.907Z,0.00
2018-12-25T02:08:19.107Z,0.00
2018-12-25T02:10:49.536Z,0.10
2018-12-25T02:13:20.118Z,0.10
2018-12-25T02:15:50.548Z,0.10
2018-12-25T02:18:20.743Z,0.10
2018-12-25T02:20:51.092Z,0.20
2018-12-25T02:23:21.344Z,0.10
2018-12-25T02:25:51.812Z,0.20
2018-12-25T02:28:22.458Z,0.20
2018-12-25T02:30:52.976Z,0.20
2018-12-25T02:33:23.508Z,0.20
2018-12-25T02:35:53.797Z,0.30
2018-12-25T02:38:24.202Z,0.30
2018-12-25T02:40:54.565Z,0.30
2018-12-25T02:43:24.756Z,0.30
2018-12-25T02:45:54.977Z,0.30
2018-12-25T02:48:25.577Z,0.30
2018-12-25T02:50:56.088Z,0.30
2018-12-25T02:53:26.293Z,0.30
2018-12-25T02:55:56.488Z,0.30
2018-12-25T02:58:26.805Z,0.40
2018-12-25T03:00:57.089Z,0.40
2018-12-25T03:03:27.395Z,0.40
2018-12-25T03:05:57.569Z,0.40
2018-12-25T03:08:27.786Z,0.50
2018-12-25T03:10:58.392Z,0.50
2018-12-25T03:13:28.796Z,0.50
2018-12-25T03:15:59.082Z,0.50
2018-12-25T03:18:29.625Z,0.50
2018-12-25T03:20:59.788Z,0.50
2018-12-25T03:23:30.025Z,0.50
2018-12-25T03:26:00.309Z,0.60
2018-12-25T03:28:30.754Z,0.60
2018-12-25T03:31:01.041Z,0.70
2018-12-25T03:33:31.650Z,0.70
2018-12-25T03:36:01.994Z,0.70
2018-12-25T03:38:32.288Z,0.70
2018-12-25T03:41:02.668Z,0.70
2018-12-25T03:43:32.965Z,0.80
2018-12-25T03:46:03.560Z,0.80
2018-12-25T03:48:33.701Z,0.70
2018-12-25T03:51:04.256Z,0.80
2018-12-25T03:53:34.627Z,0.80
2018-12-25T03:56:04.858Z,0.80
2018-12-25T03:58:35.165Z,0.90
2018-12-25T04:01:05.636Z,0.90
2018-12-25T04:03:35.785Z,0.80
2018-12-25T04:06:06.256Z,0.80
2018-12-25T04:08:36.545Z,0.90
2018-12-25T04:11:07.004Z,0.90
2018-12-25T04:13:37.228Z,0.90
2018-12-25T04:16:07.496Z,1.00
2018-12-25T04:18:37.980Z,1.00
2018-12-25T04:21:08.293Z,0.90
2018-12-25T04:23:38.748Z,0.90
2018-12-25T04:26:09.165Z,0.90
2018-12-25T04:28:39.496Z,0.90
2018-12-25T04:31:09.774Z,0.90
2018-12-25T04:33:40.334Z,0.90
2018-12-25T04:36:10.540Z,1.00
2018-12-25T04:38:40.840Z,1.00
2018-12-25T04:41:11.152Z,1.00
2018-12-25T04:43:41.571Z,1.10
2018-12-25T04:46:11.864Z,1.10
2018-12-25T04:48:42.080Z,1.10
2018-12-25T04:51:12.483Z,1.10
2018-12-25T04:53:42.692Z,1.10
2018-12-25T04:56:12.888Z,1.10
2018-12-25T04:58:43.298Z,1.10
2018-12-25T05:01:13.520Z,1.10
2018-12-25T05:03:43.797Z,1.00
2018-12-25T05:06:14.128Z,1.00
2018-12-25T05:08:44.347Z,1.10
2018-12-25T05:11:14.752Z,1.00
2018-12-25T05:13:45.236Z,1.10
2018-12-25T05:16:15.752Z,1.10
2018-12-25T05:18:46.148Z,1.00
2018-12-25T05:21:16.736Z,1.00
2018-12-25T05:23:46.869Z,1.00
2018-12-25T05:26:17.250Z,1.00
2018-12-25T05:28:47.612Z,1.10
2018-12-25T05:31:18.076Z,1.00
2018-12-25T05:33:48.420Z,1.00
2018-12-25T05:36:18.656Z,1.10
2018-12-25T05:38:49.061Z,1.10
2018-12-25T05:41:19.350Z,1.10
2018-12-25T05:43:49.568Z,1.10
2018-12-25T05:46:19.778Z,1.10
2018-12-25T05:48:50.064Z,1.10
2018-12-25T05:51:20.336Z,1.10
2018-12-25T05:53:50.548Z,1.10
2018-12-25T05:56:20.752Z,1.10
2018-12-25T05:58:51.036Z,1.10
2018-12-25T06:01:21.180Z,1.10
2018-12-25T06:03:51.548Z,1.10
2018-12-25T06:06:21.861Z,1.00
2018-12-25T06:08:52.212Z,1.10
2018-12-25T06:11:22.613Z,1.10
2018-12-25T06:13:53.170Z,1.10
2018-12-25T06:16:23.637Z,1.10
2018-12-25T06:18:53.949Z,1.10
2018-12-25T06:21:24.143Z,1.10
2018-12-25T06:23:54.288Z,1.10
2018-12-25T06:26:24.496Z,1.10
2018-12-25T06:28:54.824Z,1.10
2018-12-25T06:31:25.046Z,1.00
2018-12-25T06:33:55.592Z,1.00
2018-12-25T06:36:25.908Z,1.10
2018-12-25T06:38:56.280Z,1.00
2018-12-25T06:41:26.802Z,1.00
2018-12-25T06:43:57.005Z,1.10
2018-12-25T06:46:27.280Z,1.00
2018-12-25T06:48:57.492Z,1.00
2018-12-25T06:51:27.862Z,1.10
2018-12-25T06:53:58.068Z,1.00
2018-12-25T06:56:28.654Z,1.00
2018-12-25T06:58:59.101Z,1.10
2018-12-25T07:01:29.682Z,1.10
2018-12-25T07:03:59.886Z,1.10
2018-12-25T07:06:30.129Z,1.10
2018-12-25T07:09:00.328Z,1.10
2018-12-25T07:11:30.553Z,1.10
2018-12-25T07:14:00.953Z,1.10
2018-12-25T07:16:31.164Z,1.00
2018-12-25T07:19:01.373Z,1.10
2018-12-25T07:21:32.007Z,1.10
2018-12-25T07:24:02.412Z,1.10
2018-12-25T07:26:33.078Z,1.10
2018-12-25T07:29:03.597Z,1.10
2018-12-25T07:31:34.286Z,1.10
2018-12-25T07:34:04.712Z,1.10
2018-12-25T07:36:35.526Z,1.10
2018-12-25T07:39:06.724Z,1.10
2018-12-25T07:41:37.127Z,1.10
2018-12-25T07:44:07.521Z,1.00
2018-12-25T07:46:37.720Z,1.10
2018-12-25T07:49:08.312Z,1.00
2018-12-25T07:51:38.710Z,1.00
2018-12-25T07:54:09.024Z,1.00
2018-12-25T07:56:39.332Z,1.10
2018-12-25T07:59:09.616Z,1.10
2018-12-25T08:01:40.068Z,1.20
2018-12-25T08:04:10.549Z,1.20
2018-12-25T08:06:40.948Z,1.20
2018-12-25T08:09:11.229Z,1.30
2018-12-25T08:11:41.672Z,1.20
2018-12-25T08:14:12.072Z,1.30
2018-12-25T08:16:42.564Z,1.30
2018-12-25T08:19:12.861Z,1.30
2018-12-25T08:21:43.191Z,1.30
2018-12-25T08:24:13.505Z,1.40
2018-12-25T08:26:43.968Z,1.40
2018-12-25T08:29:14.244Z,1.50
2018-12-25T08:31:44.660Z,1.50
2018-12-25T08:34:14.868Z,1.50
2018-12-25T08:36:46.053Z,1.60
2018-12-25T08:39:16.548Z,1.60
2018-12-25T08:41:46.744Z,1.70
2018-12-25T08:44:17.158Z,1.70
2018-12-25T08:46:47.445Z,1.70
2018-12-25T08:49:17.669Z,1.70
2018-12-25T08:51:48.164Z,1.80
2018-12-25T08:54:18.456Z,1.80
2018-12-25T08:56:48.933Z,1.80
2018-12-25T08:59:19.308Z,1.80
2018-12-25T09:01:49.737Z,1.80
2018-12-25T09:04:20.004Z,1.90
2018-12-25T09:06:50.419Z,1.90
2018-12-25T09:09:20.895Z,1.90
2018-12-25T09:11:51.138Z,1.90
2018-12-25T09:14:21.491Z,2.00
2018-12-25T09:16:51.765Z,2.00
2018-12-25T09:19:22.045Z,2.00
2018-12-25T09:21:52.243Z,2.10
2018-12-25T09:24:22.728Z,2.10
2018-12-25T09:26:52.953Z,2.10
2018-12-25T09:29:23.319Z,2.10
2018-12-25T09:31:53.600Z,2.10
2018-12-25T09:34:23.910Z,2.10
2018-12-25T09:36:54.128Z,2.10
2018-12-25T09:39:24.325Z,2.20
2018-12-25T09:41:54.552Z,2.20
2018-12-25T09:44:24.680Z,2.20
2018-12-25T09:46:54.893Z,2.30
2018-12-25T09:49:25.188Z,2.30
2018-12-25T09:51:55.472Z,2.30
2018-12-25T09:54:25.670Z,2.40
2018-12-25T09:56:56.283Z,2.50
2018-12-25T09:59:27.067Z,2.50
2018-12-25T10:01:57.546Z,2.50
2018-12-25T10:04:27.813Z,2.50
2018-12-25T10:06:58.027Z,2.50
2018-12-25T10:09:28.326Z,2.60
2018-12-25T10:11:58.812Z,2.60
2018-12-25T10:14:29.108Z,2.60
2018-12-25T10:16:59.428Z,2.60
2018-12-25T10:19:30.040Z,2.60
2018-12-25T10:22:03.041Z,2.70
2018-12-25T10:24:33.041Z,2.70
2018-12-25T10:27:03.252Z,2.70
2018-12-25T10:29:33.469Z,2.70
2018-12-25T10:32:03.592Z,2.70
2018-12-25T10:34:33.826Z,2.70
2018-12-25T10:37:04.103Z,2.80
2018-12-25T10:39:34.404Z,2.80
2018-12-25T10:42:04.706Z,2.80
2018-12-25T10:44:35.544Z,2.90
2018-12-25T10:47:05.924Z,3.00
2018-12-25T10:49:36.325Z,3.00
2018-12-25T10:52:11.549Z,3.10
2018-12-25T10:54:38.645Z,3.00
2018-12-25T10:57:09.129Z,3.10
2018-12-25T10:59:39.397Z,3.20
2018-12-25T11:02:09.817Z,3.20
2018-12-25T11:04:40.124Z,3.30
2018-12-25T11:07:10.588Z,3.20
2018-12-25T11:09:40.870Z,3.30
2018-12-25T11:12:11.152Z,3.30
2018-12-25T11:14:41.601Z,3.30
2018-12-25T11:17:11.728Z,3.30
2018-12-25T11:19:42.017Z,3.30
2018-12-25T11:22:19.666Z,3.30
2018-12-25T11:24:44.570Z,3.40
2018-12-25T11:27:15.020Z,3.40
2018-12-25T11:29:45.165Z,3.40
2018-12-25T11:32:15.438Z,3.40
2018-12-25T11:34:45.760Z,3.50
2018-12-25T11:37:16.031Z,3.50
2018-12-25T11:39:46.273Z,3.50
2018-12-25T11:42:16.408Z,3.60
2018-12-25T11:44:46.923Z,3.60
2018-12-25T11:47:17.193Z,3.60
2018-12-25T11:49:47.345Z,3.60
2018-12-25T11:52:17.478Z,3.70
2018-12-25T11:54:47.728Z,3.80
2018-12-25T11:57:18.244Z,3.80
2018-12-25T11:59:48.532Z,3.80
2018-12-25T12:02:18.829Z,3.80
2018-12-25T12:04:49.136Z,3.90
2018-12-25T12:07:19.844Z,3.90
2018-12-25T12:09:50.067Z,3.90
2018-12-25T12:12:20.200Z,3.90
2018-12-25T12:14:50.412Z,3.90
2018-12-25T12:17:20.612Z,3.90
2018-12-25T12:19:50.996Z,3.90
2018-12-25T12:22:21.192Z,3.90
2018-12-25T12:24:51.405Z,3.90
2018-12-25T12:27:21.802Z,3.90
2018-12-25T12:29:52.198Z,3.90
2018-12-25T12:32:22.609Z,3.90
2018-12-25T12:34:52.760Z,3.90
2018-12-25T12:37:22.898Z,3.90
2018-12-25T12:39:53.264Z,3.90
2018-12-25T12:42:23.476Z,3.90
2018-12-25T12:44:55.374Z,3.90
2018-12-25T12:47:26.016Z,3.90
2018-12-25T12:49:56.284Z,3.90
2018-12-25T12:52:26.496Z,3.90
2018-12-25T12:54:56.762Z,3.90
2018-12-25T12:57:27.422Z,3.90
2018-12-25T12:59:57.620Z,3.90
2018-12-25T13:02:27.764Z,3.90
2018-12-25T13:04:58.163Z,3.90
2018-12-25T13:07:28.632Z,3.90
2018-12-25T13:09:58.900Z,3.90
2018-12-25T13:12:29.115Z,3.90
2018-12-25T13:14:59.384Z,3.80
2018-12-25T13:17:29.799Z,3.90
2018-12-25T13:20:00.322Z,3.90
2018-12-25T13:22:30.533Z,3.90
2018-12-25T13:25:00.757Z,3.90
2018-12-25T13:27:31.066Z,3.90
2018-12-25T13:30:01.316Z,3.90
2018-12-25T13:32:31.530Z,3.90
2018-12-25T13:35:01.756Z,3.90
2018-12-25T13:37:32.044Z,3.90
2018-12-25T13:40:02.266Z,3.80
2018-12-25T13:42:32.566Z,3.90
2018-12-25T13:45:02.926Z,3.90
2018-12-25T13:47:33.092Z,3.90
2018-12-25T13:50:04.052Z,3.80
2018-12-25T13:52:34.429Z,3.90
2018-12-25T13:55:05.320Z,3.90
2018-12-25T13:57:35.584Z,3.80
2018-12-25T14:00:06.512Z,3.90
2018-12-25T14:02:36.808Z,3.90
2018-12-25T14:05:07.016Z,3.90
2018-12-25T14:07:37.213Z,3.90
2018-12-25T14:10:09.235Z,3.90
2018-12-25T14:12:39.431Z,3.90
2018-12-25T14:15:09.581Z,3.90
2018-12-25T14:17:39.796Z,3.90
2018-12-25T14:20:10.116Z,3.90
2018-12-25T14:22:40.312Z,3.90
2018-12-25T14:25:10.584Z,3.80
2018-12-25T14:27:42.472Z,3.80
2018-12-25T14:30:12.614Z,3.80
2018-12-25T14:32:42.896Z,3.80
2018-12-25T14:35:13.213Z,3.80
2018-12-25T14:37:43.405Z,3.90
2018-12-25T14:40:13.819Z,3.80
2018-12-25T14:42:44.364Z,3.80
2018-12-25T14:45:14.580Z,3.70
2018-12-25T14:47:44.862Z,3.70
2018-12-25T14:50:15.068Z,3.70
2018-12-25T14:52:45.279Z,3.70
2018-12-25T14:55:15.551Z,3.70
2018-12-25T14:57:45.834Z,3.70
2018-12-25T15:00:15.976Z,3.70
2018-12-25T15:02:46.251Z,3.70
2018-12-25T15:05:16.664Z,3.70
2018-12-25T15:07:46.912Z,3.70
2018-12-25T15:10:17.088Z,3.70
2018-12-25T15:12:47.308Z,3.70
2018-12-25T15:15:17.608Z,3.70
2018-12-25T15:17:47.808Z,3.70
2018-12-25T15:20:18.066Z,3.70
2018-12-25T15:22:48.315Z,3.70
2018-12-25T15:25:18.524Z,3.70
2018-12-25T15:27:48.669Z,3.70
2018-12-25T15:30:18.876Z,3.70
2018-12-25T15:32:49.098Z,3.70
2018-12-25T15:35:19.368Z,3.70
2018-12-25T15:37:49.616Z,3.70
2018-12-25T15:40:19.740Z,3.70
2018-12-25T15:42:49.948Z,3.80
2018-12-25T15:45:20.144Z,3.80
2018-12-25T15:47:50.354Z,3.80
2018-12-25T15:50:20.646Z,3.80
2018-12-25T15:52:50.909Z,3.80
2018-12-25T15:55:21.220Z,3.90
2018-12-25T15:57:51.794Z,3.90
2018-12-25T16:00:22.096Z,3.90
2018-12-25T16:02:52.556Z,3.90
2018-12-25T16:05:23.053Z,3.90
2018-12-25T16:07:53.310Z,3.90
2018-12-25T16:10:23.588Z,3.90
2018-12-25T16:12:53.800Z,3.90
2018-12-25T16:15:24.138Z,3.90
2018-12-25T16:17:54.356Z,4.00
2018-12-25T16:20:24.772Z,4.00
2018-12-25T16:22:55.057Z,4.00
2018-12-25T16:25:25.286Z,4.00
2018-12-25T16:27:55.570Z,4.10
2018-12-25T16:30:25.868Z,4.10
2018-12-25T16:32:56.193Z,4.10
2018-12-25T16:35:26.397Z,4.20
2018-12-25T16:37:56.886Z,4.20
2018-12-25T16:40:27.240Z,4.20
2018-12-25T16:42:57.447Z,4.20
2018-12-25T16:45:27.731Z,4.20
2018-12-25T16:47:58.722Z,4.30
2018-12-25T16:50:29.263Z,4.30
2018-12-25T16:52:59.464Z,4.30
2018-12-25T16:55:29.640Z,4.30
2018-12-25T16:57:59.836Z,4.30
2018-12-25T17:00:29.989Z,4.40
2018-12-25T17:03:00.189Z,4.40
2018-12-25T17:05:30.400Z,4.40
2018-12-25T17:08:00.731Z,4.40
2018-12-25T17:10:31.016Z,4.40
2018-12-25T17:13:01.212Z,4.50
2018-12-25T17:15:31.624Z,4.40
2018-12-25T17:18:02.026Z,4.50
2018-12-25T17:20:32.432Z,4.50
2018-12-25T17:23:02.630Z,4.50
2018-12-25T17:25:32.876Z,4.60
2018-12-25T17:28:03.176Z,4.60
2018-12-25T17:30:33.416Z,4.60
2018-12-25T17:33:03.619Z,4.60
2018-12-25T17:35:33.936Z,4.60
2018-12-25T17:38:04.229Z,4.60
2018-12-25T17:40:34.438Z,4.60
2018-12-25T17:43:04.768Z,4.60
2018-12-25T17:45:35.188Z,4.60
2018-12-25T17:48:05.601Z,4.60
2018-12-25T17:50:35.807Z,4.50
2018-12-25T17:53:06.277Z,4.60
2018-12-25T17:55:36.793Z,4.60
2018-12-25T17:58:07.146Z,4.60
2018-12-25T18:00:37.424Z,4.60
2018-12-25T18:03:07.620Z,4.60
2018-12-25T18:05:37.953Z,4.60
2018-12-25T18:08:08.077Z,4.60
2018-12-25T18:10:38.293Z,4.70
2018-12-25T18:13:08.756Z,4.60
2018-12-25T18:15:39.076Z,4.70
2018-12-25T18:18:09.468Z,4.70
2018-12-25T18:20:39.708Z,4.70
2018-12-25T18:23:09.977Z,4.70
2018-12-25T18:25:40.260Z,4.70
2018-12-25T18:28:10.456Z,4.70
2018-12-25T18:30:40.810Z,4.70
2018-12-25T18:33:11.004Z,4.80
2018-12-25T18:35:41.231Z,4.80
2018-12-25T18:38:11.542Z,4.80
2018-12-25T18:40:41.901Z,4.80
2018-12-25T18:43:12.134Z,4.80
2018-12-25T18:45:42.342Z,4.70
2018-12-25T18:48:12.833Z,4.80
2018-12-25T18:50:43.297Z,4.70
2018-12-25T18:53:13.681Z,4.70
2018-12-25T18:55:44.433Z,4.80
2018-12-25T18:58:14.711Z,4.80
2018-12-25T19:00:44.983Z,4.80
2018-12-25T19:03:15.155Z,4.80
2018-12-25T19:05:45.373Z,4.80
2018-12-25T19:08:15.640Z,4.80
2018-12-25T19:10:50.706Z,4.80
2018-12-25T19:13:21.680Z,4.80
2018-12-25T19:15:52.036Z,4.80
2018-12-25T19:18:22.308Z,4.80
2018-12-25T19:20:52.516Z,4.80
2018-12-25T19:23:22.856Z,4.80
2018-12-25T19:25:53.070Z,4.80
2018-12-25T19:28:23.337Z,4.80
2018-12-25T19:30:53.664Z,4.80
2018-12-25T19:33:23.882Z,4.80
2018-12-25T19:35:54.266Z,4.90
2018-12-25T19:38:24.747Z,4.90
2018-12-25T19:40:55.099Z,4.90
2018-12-25T19:43:25.452Z,4.90
2018-12-25T19:45:55.997Z,4.90
2018-12-25T19:48:26.273Z,4.90
2018-12-25T19:50:56.544Z,4.90
2018-12-25T19:53:26.846Z,4.90
2018-12-25T19:55:57.144Z,4.90
2018-12-25T19:58:27.526Z,4.90
2018-12-25T20:00:57.933Z,4.90
2018-12-25T20:03:28.612Z,4.90
2018-12-25T20:06:35.612Z,4.90
2018-12-25T20:09:17.868Z,4.90
2018-12-25T20:11:59.739Z,4.90
2018-12-25T20:14:41.328Z,4.80
2018-12-25T20:17:37.310Z,4.80
2018-12-25T20:20:26.971Z,4.70
2018-12-25T20:23:12.177Z,4.70
2018-12-25T20:26:01.801Z,4.60
2018-12-25T20:28:51.681Z,4.60
2018-12-25T20:31:41.524Z,4.60
2018-12-25T20:34:20.422Z,4.60
2018-12-25T20:37:22.782Z,4.60
2018-12-25T20:40:12.653Z,4.50
2018-12-25T20:43:01.400Z,4.50
2018-12-25T20:45:37.652Z,4.50
2018-12-25T20:48:19.969Z,4.40
2018-12-25T20:51:16.144Z,4.40
2018-12-25T20:54:13.603Z,4.40
2018-12-25T20:57:06.741Z,4.40
2018-12-25T20:59:57.808Z,4.40
2018-12-25T21:02:59.860Z,4.50
2018-12-25T21:05:36.005Z,4.50
2018-12-25T21:08:24.676Z,4.50
2018-12-25T21:11:18.766Z,4.50
2018-12-25T21:14:10.423Z,4.50
2018-12-25T21:17:03.205Z,4.50
2018-12-25T21:20:09.824Z,4.50
2018-12-25T21:23:17.667Z,4.50
2018-12-25T21:26:24.545Z,4.50
2018-12-25T21:28:54.944Z,4.50
2018-12-25T21:31:25.496Z,4.50
2018-12-25T21:33:56.088Z,4.40
2018-12-25T21:36:26.969Z,4.40
2018-12-25T21:38:57.282Z,4.40
2018-12-25T21:41:27.724Z,4.40
2018-12-25T21:43:58.376Z,4.30
2018-12-25T21:46:28.926Z,4.30
2018-12-25T21:48:59.422Z,4.30
2018-12-25T21:51:29.844Z,4.30
2018-12-25T21:54:00.113Z,4.30
2018-12-25T21:56:31.213Z,4.30
2018-12-25T21:59:01.553Z,4.30
2018-12-25T22:01:31.905Z,4.30
2018-12-25T22:04:02.421Z,4.30
2018-12-25T22:06:32.556Z,4.30
2018-12-25T22:09:03.040Z,4.30
2018-12-25T22:11:33.276Z,4.30
2018-12-25T22:14:03.557Z,4.30
2018-12-25T22:16:35.520Z,4.30
2018-12-25T22:19:05.948Z,4.30
2018-12-25T22:21:36.218Z,4.30
2018-12-25T22:24:06.495Z,4.20
2018-12-25T22:26:36.872Z,4.30
2018-12-25T22:29:07.140Z,4.20
2018-12-25T22:31:37.552Z,4.20
2018-12-25T22:34:07.764Z,4.20
2018-12-25T22:36:38.073Z,4.20
2018-12-25T22:39:08.437Z,4.20
2018-12-25T22:41:38.651Z,4.20
2018-12-25T22:44:09.032Z,4.20
2018-12-25T22:46:39.379Z,4.20
2018-12-25T22:49:09.664Z,4.20
2018-12-25T22:51:39.800Z,4.20
2018-12-25T22:54:10.012Z,4.10
2018-12-25T22:56:40.557Z,4.20
2018-12-25T22:59:11.040Z,4.10
2018-12-25T23:01:41.410Z,4.10
2018-12-25T23:04:11.768Z,4.20
2018-12-25T23:06:42.213Z,4.20
2018-12-25T23:09:12.408Z,4.20
2018-12-25T23:11:42.799Z,4.30
2018-12-25T23:14:13.192Z,4.30
2018-12-25T23:16:43.328Z,4.30
2018-12-25T23:19:13.529Z,4.30
2018-12-25T23:21:43.843Z,4.30
2018-12-25T23:24:14.173Z,4.40
2018-12-25T23:26:44.605Z,4.40
2018-12-25T23:29:15.296Z,4.40
2018-12-25T23:31:45.492Z,4.40
2018-12-25T23:34:15.775Z,4.40
2018-12-25T23:36:46.162Z,4.40
2018-12-25T23:39:16.388Z,4.40
2018-12-25T23:41:46.597Z,4.40
2018-12-25T23:44:16.804Z,4.40
2018-12-25T23:46:47.086Z,4.40
2018-12-25T23:49:17.233Z,4.30
2018-12-25T23:51:48.480Z,4.40
2018-12-25T23:54:19.290Z,4.40
2018-12-25T23:56:49.815Z,4.40
2018-12-25T23:59:20.836Z,4.40
